Terminal Aerodrome Forecast
Issued by NWS Portland, OR

Home | Current Version | Previous Version | Text Only | Print | Product List | Glossary On
Versions: 1 2 3 4 5 6 7 8 9 10 11 12 13 14 15 16 17 18 19 20 21 22 23 24 25 26 27 28 29 30 31 32 33 34
000
FTUS46 KPQR 172330
TAFAST
TAF
KAST 172330Z 1800/1824 24006KT P6SM SCT040 OVC120
      TEMPO 1802/1805 6SM -SHRA BKN040
     FM180900 VRB02KT 5SM -SHRA SCT015 OVC050
     FM181300 VRB02KT P6SM BKN010 OVC025
     FM181900 22005KT P6SM OVC015=

USA.gov is the U.S. government's official web portal to all federal, state and local government web resources and services.